createdAt,value
2022-10-20T00:01:54.431Z,95841.31
2022-10-20T00:04:22.166Z,95849.84
2022-10-20T00:06:49.789Z,95853.41
2022-10-20T00:09:19.167Z,95843.81
2022-10-20T00:11:46.894Z,95842.97
2022-10-20T00:14:14.554Z,95850.13
2022-10-20T00:16:42.153Z,95853.38
2022-10-20T00:19:10.509Z,95846.50
2022-10-20T00:21:38.139Z,95855.41
2022-10-20T00:24:05.944Z,95859.97
2022-10-20T00:26:35.008Z,95856.06
2022-10-20T00:29:04.552Z,95859.41
2022-10-20T00:31:33.039Z,95861.78
2022-10-20T00:34:00.672Z,95858.44
2022-10-20T00:36:28.458Z,95852.91
2022-10-20T00:39:00.250Z,95852.22
2022-10-20T00:41:29.339Z,95850.84
2022-10-20T00:44:01.036Z,95844.00
2022-10-20T00:46:33.679Z,95844.53
2022-10-20T00:49:07.818Z,95835.31
2022-10-20T00:51:35.997Z,95831.41
2022-10-20T00:54:09.012Z,95818.03
2022-10-20T00:56:38.859Z,95807.88
2022-10-20T00:59:07.949Z,95799.78
2022-10-20T01:01:36.284Z,95805.81
2022-10-20T01:04:04.197Z,95808.97
2022-10-20T01:06:32.061Z,95819.00
2022-10-20T01:08:59.923Z,95816.25
2022-10-20T01:11:36.501Z,95810.25
2022-10-20T01:14:16.276Z,95803.59
2022-10-20T01:16:52.451Z,95792.06
2022-10-20T01:19:41.567Z,95796.06
2022-10-20T01:22:32.614Z,95797.03
2022-10-20T01:25:17.569Z,95794.25
2022-10-20T01:27:47.794Z,95800.47
2022-10-20T01:30:18.156Z,95802.53
2022-10-20T01:32:56.299Z,95796.09
2022-10-20T01:35:34.245Z,95794.00
2022-10-20T01:38:11.854Z,95803.63
2022-10-20T01:40:46.022Z,95801.28
2022-10-20T01:43:19.567Z,95797.00
2022-10-20T01:45:49.517Z,95798.09
2022-10-20T01:48:21.181Z,95789.16
2022-10-20T01:50:49.739Z,95790.69
2022-10-20T01:53:17.448Z,95782.56
2022-10-20T01:55:45.177Z,95782.41
2022-10-20T01:58:40.046Z,95778.84
2022-10-20T02:01:18.562Z,95778.16
2022-10-20T02:03:54.134Z,95778.03
2022-10-20T02:06:33.033Z,95781.59
2022-10-20T02:09:03.501Z,95787.34
2022-10-20T02:11:37.903Z,95783.78
2022-10-20T02:14:08.997Z,95776.81
2022-10-20T02:16:42.039Z,95784.78
2022-10-20T02:19:12.388Z,95778.44
2022-10-20T02:21:40.106Z,95771.84
2022-10-20T02:24:10.307Z,95767.16
2022-10-20T02:26:40.323Z,95759.31
2022-10-20T02:29:15.143Z,95767.66
2022-10-20T02:31:43.795Z,95765.19
2022-10-20T02:34:12.223Z,95761.06
2022-10-20T02:36:42.805Z,95751.03
2022-10-20T02:39:11.286Z,95741.97
2022-10-20T02:41:39.010Z,95748.84
2022-10-20T02:44:06.689Z,95737.81
2022-10-20T02:46:35.679Z,95741.16
2022-10-20T02:49:03.260Z,95735.09
2022-10-20T02:51:30.935Z,95733.44
2022-10-20T02:53:58.516Z,95740.16
2022-10-20T02:56:28.841Z,95737.28
2022-10-20T02:58:58.633Z,95732.22
2022-10-20T03:01:26.404Z,95735.94
2022-10-20T03:03:59.561Z,95724.75
2022-10-20T03:06:27.709Z,95733.72
2022-10-20T03:08:55.406Z,95740.97
2022-10-20T03:11:23.074Z,95729.00
2022-10-20T03:13:51.015Z,95731.78
2022-10-20T03:16:18.659Z,95729.19
2022-10-20T03:18:46.222Z,95728.22
2022-10-20T03:21:15.311Z,95744.69
2022-10-20T03:23:43.014Z,95732.66
2022-10-20T03:26:12.163Z,95734.13
2022-10-20T03:28:40.067Z,95734.66
2022-10-20T03:31:08.324Z,95747.44
2022-10-20T03:33:36.216Z,95745.09
2022-10-20T03:36:03.890Z,95740.69
2022-10-20T03:38:33.004Z,95737.66
2022-10-20T03:43:29.161Z,95746.31
2022-10-20T03:46:04.091Z,95738.34
2022-10-20T03:48:32.101Z,95735.47
2022-10-20T03:51:01.606Z,95732.72
2022-10-20T03:53:29.428Z,95727.22
2022-10-20T03:55:58.481Z,95731.84
2022-10-20T03:58:26.214Z,95729.81
2022-10-20T04:00:55.363Z,95733.66
2022-10-20T04:03:22.972Z,95732.97
2022-10-20T04:05:50.744Z,95723.88
2022-10-20T04:08:18.462Z,95723.88
2022-10-20T04:10:46.153Z,95726.81
2022-10-20T04:13:15.047Z,95723.34
2022-10-20T04:15:42.884Z,95732.38
2022-10-20T04:18:10.491Z,95725.00
2022-10-20T04:20:40.600Z,95726.91
2022-10-20T04:23:11.368Z,95726.34
2022-10-20T04:25:45.392Z,95730.44
2022-10-20T04:28:13.643Z,95731.78
2022-10-20T04:30:43.249Z,95721.72
2022-10-20T04:33:11.559Z,95729.56
2022-10-20T04:35:39.899Z,95722.69
2022-10-20T04:38:08.178Z,95712.97
2022-10-20T04:40:35.794Z,95718.97
2022-10-20T04:43:03.742Z,95715.56
2022-10-20T04:45:32.048Z,95711.28
2022-10-20T04:48:02.214Z,95704.84
2022-10-20T04:50:29.847Z,95710.44
2022-10-20T04:52:57.487Z,95707.16
2022-10-20T04:55:25.131Z,95705.53
2022-10-20T04:57:52.692Z,95706.75
2022-10-20T05:00:20.625Z,95705.28
2022-10-20T05:02:48.224Z,95703.47
2022-10-20T05:05:17.440Z,95697.13
2022-10-20T05:07:45.059Z,95702.81
2022-10-20T05:10:12.654Z,95689.78
2022-10-20T05:12:40.258Z,95697.84
2022-10-20T05:15:08.792Z,95694.94
2022-10-20T05:17:36.427Z,95691.94
2022-10-20T05:20:04.437Z,95684.19
2022-10-20T05:22:33.683Z,95680.88
2022-10-20T05:25:24.403Z,95683.78
2022-10-20T05:27:49.202Z,95691.41
2022-10-20T05:30:16.821Z,95695.63
2022-10-20T05:32:44.432Z,95691.50
2022-10-20T05:35:12.060Z,95688.59
2022-10-20T05:37:41.075Z,95690.84
2022-10-20T05:40:10.266Z,95690.81
2022-10-20T05:42:38.404Z,95691.09
2022-10-20T05:45:07.665Z,95689.19
2022-10-20T05:47:35.610Z,95687.66
2022-10-20T05:50:03.258Z,95691.66
2022-10-20T05:52:30.913Z,95697.13
2022-10-20T05:55:00.426Z,95690.41
2022-10-20T05:57:28.139Z,95689.88
2022-10-20T05:59:55.741Z,95686.13
2022-10-20T06:02:23.432Z,95684.63
2022-10-20T06:04:50.963Z,95692.19
2022-10-20T06:07:18.641Z,95684.91
2022-10-20T06:09:46.295Z,95688.44
2022-10-20T06:12:15.250Z,95686.94
2022-10-20T06:14:44.801Z,95691.69
2022-10-20T06:17:12.459Z,95693.75
2022-10-20T06:19:40.079Z,95702.53
2022-10-20T06:22:07.700Z,95691.41
2022-10-20T06:24:35.425Z,95686.56
2022-10-20T06:27:03.027Z,95691.59
2022-10-20T06:29:31.948Z,95696.22
2022-10-20T06:31:59.495Z,95694.84
2022-10-20T06:34:27.320Z,95703.88
2022-10-20T06:36:54.884Z,95709.63
2022-10-20T06:39:24.666Z,95699.97
2022-10-20T06:41:54.076Z,95692.78
2022-10-20T06:44:23.771Z,95689.53
2022-10-20T06:46:53.362Z,95695.06
2022-10-20T06:49:21.869Z,95699.44
2022-10-20T06:51:50.235Z,95693.13
2022-10-20T06:54:17.939Z,95695.28
2022-10-20T06:56:45.625Z,95686.38
2022-10-20T06:59:13.262Z,95684.56
2022-10-20T07:01:40.989Z,95685.69
2022-10-20T07:04:14.646Z,95689.94
2022-10-20T07:06:44.440Z,95682.94
2022-10-20T07:09:14.800Z,95684.56
2022-10-20T07:11:43.054Z,95676.00
2022-10-20T07:14:12.540Z,95682.16
2022-10-20T07:16:40.181Z,95679.00
2022-10-20T07:19:08.014Z,95689.59
2022-10-20T07:21:39.271Z,95673.78
2022-10-20T07:24:10.230Z,95676.25
2022-10-20T07:26:40.205Z,95685.03
2022-10-20T07:29:08.734Z,95680.22
2022-10-20T07:31:38.883Z,95679.00
2022-10-20T07:34:26.191Z,95679.53
2022-10-20T07:36:57.737Z,95687.56
2022-10-20T07:39:26.356Z,95672.84
2022-10-20T07:41:54.042Z,95670.22
2022-10-20T07:44:21.759Z,95668.81
2022-10-20T07:46:49.549Z,95673.69
2022-10-20T07:52:08.956Z,95670.75
2022-10-20T07:54:37.161Z,95671.84
2022-10-20T07:57:05.014Z,95669.78
2022-10-20T07:59:32.678Z,95667.03
2022-10-20T08:02:00.643Z,95662.63
2022-10-20T08:04:29.009Z,95663.31
2022-10-20T08:06:56.601Z,95657.97
2022-10-20T08:09:25.569Z,95659.38
2022-10-20T08:11:55.509Z,95655.34
2022-10-20T08:14:25.382Z,95663.38
2022-10-20T08:17:12.462Z,95669.00
2022-10-20T08:19:52.324Z,95666.28
2022-10-20T08:22:20.280Z,95662.41
2022-10-20T08:24:49.245Z,95660.28
2022-10-20T08:27:16.979Z,95655.84
2022-10-20T08:29:50.863Z,95654.97
2022-10-20T08:32:28.065Z,95663.19
2022-10-20T08:34:56.941Z,95655.06
2022-10-20T08:37:24.803Z,95657.38
2022-10-20T08:39:53.805Z,95656.81
2022-10-20T08:42:21.502Z,95658.72
2022-10-20T08:44:49.771Z,95655.03
2022-10-20T08:47:29.234Z,95658.28
2022-10-20T08:50:00.746Z,95651.44
2022-10-20T08:52:28.660Z,95648.81
2022-10-20T08:54:58.755Z,95655.91
2022-10-20T08:57:28.652Z,95640.53
2022-10-20T09:00:04.785Z,95643.28
2022-10-20T09:02:35.884Z,95645.75
2022-10-20T09:05:05.645Z,95649.31
2022-10-20T09:07:36.238Z,95639.16
2022-10-20T09:10:14.841Z,95643.03
2022-10-20T09:12:45.262Z,95647.00
2022-10-20T09:15:14.929Z,95641.19
2022-10-20T09:17:46.139Z,95639.84
2022-10-20T09:20:20.279Z,95640.13
2022-10-20T09:22:50.807Z,95642.84
2022-10-20T09:25:24.230Z,95633.09
2022-10-20T09:28:12.572Z,95635.16
2022-10-20T09:30:48.217Z,95631.59
2022-10-20T09:33:29.122Z,95633.25
2022-10-20T09:36:04.039Z,95641.34
2022-10-20T09:38:35.146Z,95649.47
2022-10-20T09:41:12.491Z,95654.69
2022-10-20T09:43:48.897Z,95645.75
2022-10-20T09:46:22.153Z,95644.78
2022-10-20T09:48:51.679Z,95644.50
2022-10-20T09:51:22.560Z,95644.63
2022-10-20T09:53:58.523Z,95636.13
2022-10-20T09:56:29.981Z,95640.78
2022-10-20T09:58:59.235Z,95637.59
2022-10-20T10:01:27.029Z,95637.75
2022-10-20T10:03:59.885Z,95622.94
2022-10-20T10:06:40.508Z,95626.06
2022-10-20T10:09:31.164Z,95624.31
2022-10-20T10:12:03.180Z,95620.59
2022-10-20T10:14:34.192Z,95615.94
2022-10-20T10:17:02.563Z,95615.78
2022-10-20T10:19:32.646Z,95616.88
2022-10-20T10:22:02.589Z,95610.00
2022-10-20T10:24:39.180Z,95615.94
2022-10-20T10:27:20.346Z,95619.78
2022-10-20T10:29:48.508Z,95613.44
2022-10-20T10:32:18.047Z,95627.41
2022-10-20T10:35:08.710Z,95612.53
2022-10-20T10:37:39.051Z,95610.00
2022-10-20T10:40:16.190Z,95614.22
2022-10-20T10:42:56.500Z,95612.44
2022-10-20T10:45:44.748Z,95603.75
2022-10-20T10:48:55.227Z,95597.63
2022-10-20T10:51:33.105Z,95600.22
2022-10-20T10:54:18.194Z,95594.75
2022-10-20T10:56:48.809Z,95590.28
2022-10-20T10:59:23.054Z,95581.25
2022-10-20T11:02:13.529Z,95576.88
2022-10-20T11:04:58.535Z,95578.78
2022-10-20T11:07:35.024Z,95577.56
2022-10-20T11:10:10.743Z,95566.00
2022-10-20T11:13:03.160Z,95550.13
2022-10-20T11:15:48.132Z,95553.75
2022-10-20T11:18:30.006Z,95550.13
2022-10-20T11:21:08.988Z,95545.38
2022-10-20T11:23:54.374Z,95542.91
2022-10-20T11:26:29.163Z,95547.44
2022-10-20T11:28:58.815Z,95536.47
2022-10-20T11:31:35.111Z,95536.38
2022-10-20T11:34:06.910Z,95538.19
2022-10-20T11:36:41.417Z,95533.25
2022-10-20T11:39:20.569Z,95533.69
2022-10-20T11:41:50.593Z,95529.34
2022-10-20T11:44:25.566Z,95534.38
2022-10-20T11:46:58.732Z,95541.50
2022-10-20T11:49:26.522Z,95543.75
2022-10-20T11:52:14.616Z,95539.13
2022-10-20T11:55:05.246Z,95532.91
2022-10-20T11:57:46.154Z,95521.03
2022-10-20T12:00:26.196Z,95518.75
2022-10-20T12:03:34.936Z,95515.84
2022-10-20T12:06:18.838Z,95512.41
2022-10-20T12:09:05.018Z,95516.41
2022-10-20T12:11:38.415Z,95515.91
2022-10-20T12:14:18.715Z,95512.75
2022-10-20T12:17:28.086Z,95495.75
2022-10-20T12:20:37.412Z,95496.25
2022-10-20T12:23:05.090Z,95500.00
2022-10-20T12:25:41.887Z,95492.63
2022-10-20T12:28:43.365Z,95490.31
2022-10-20T12:31:10.988Z,95490.44
2022-10-20T12:33:41.779Z,95494.06
2022-10-20T12:36:30.740Z,95499.16
2022-10-20T12:39:16.032Z,95490.44
2022-10-20T12:41:56.023Z,95495.44
2022-10-20T12:44:24.600Z,95500.84
2022-10-20T12:46:57.905Z,95490.19
2022-10-20T12:49:30.961Z,95489.53
2022-10-20T12:52:01.205Z,95490.34
2022-10-20T12:54:35.540Z,95485.78
2022-10-20T12:57:07.036Z,95491.53
2022-10-20T12:59:41.489Z,95478.41
2022-10-20T13:02:33.390Z,95485.03
2022-10-20T13:05:04.762Z,95473.44
2022-10-20T13:08:04.433Z,95488.34
2022-10-20T13:10:35.284Z,95485.53
2022-10-20T13:13:41.946Z,95495.06
2022-10-20T13:16:20.245Z,95484.41
2022-10-20T13:18:50.624Z,95487.06
2022-10-20T13:21:27.959Z,95484.34
2022-10-20T13:24:02.525Z,95473.19
2022-10-20T13:26:32.605Z,95478.16
2022-10-20T13:29:01.804Z,95486.69
2022-10-20T13:31:33.560Z,95490.66
2022-10-20T13:34:08.511Z,95491.47
2022-10-20T13:37:00.194Z,95495.06
2022-10-20T13:39:38.485Z,95497.81
2022-10-20T13:42:19.471Z,95494.38
2022-10-20T13:44:57.574Z,95506.03
2022-10-20T13:47:49.235Z,95510.44
2022-10-20T13:50:21.122Z,95495.69
2022-10-20T13:52:52.047Z,95498.47
2022-10-20T13:55:23.784Z,95495.84
2022-10-20T13:57:55.446Z,95493.38
2022-10-20T14:00:26.032Z,95507.00
2022-10-20T14:02:57.251Z,95514.88
2022-10-20T14:05:26.750Z,95513.53
2022-10-20T14:07:54.969Z,95521.56
2022-10-20T14:10:32.766Z,95521.41
2022-10-20T14:13:02.516Z,95512.22
2022-10-20T14:15:32.903Z,95528.75
2022-10-20T14:18:03.603Z,95526.81
2022-10-20T14:20:32.771Z,95528.09
2022-10-20T14:23:02.899Z,95529.38
2022-10-20T14:25:33.218Z,95537.72
2022-10-20T14:28:05.179Z,95525.91
2022-10-20T14:30:38.684Z,95522.16
2022-10-20T14:33:14.812Z,95526.72
2022-10-20T14:35:44.849Z,95519.81
2022-10-20T14:38:19.205Z,95520.00
2022-10-20T14:40:53.716Z,95526.19
2022-10-20T14:43:25.243Z,95529.66
2022-10-20T14:45:54.647Z,95536.03
2022-10-20T14:48:23.088Z,95516.34
2022-10-20T14:50:50.991Z,95507.00
2022-10-20T14:53:31.744Z,95510.59
2022-10-20T14:56:02.791Z,95510.28
2022-10-20T14:58:37.899Z,95513.88
2022-10-20T15:01:27.634Z,95515.19
2022-10-20T15:04:16.073Z,95508.44
2022-10-20T15:06:44.350Z,95511.25
2022-10-20T15:09:19.863Z,95514.50
2022-10-20T15:11:49.332Z,95525.81
2022-10-20T15:14:18.062Z,95524.38
2022-10-20T15:16:48.222Z,95506.78
2022-10-20T15:19:37.678Z,95487.94
2022-10-20T15:24:48.919Z,95483.66
2022-10-20T15:27:18.922Z,95468.59
2022-10-20T15:29:49.907Z,95475.66
2022-10-20T15:32:18.181Z,95466.66
2022-10-20T15:34:45.851Z,95463.53
2022-10-20T15:37:13.447Z,95454.09
2022-10-20T15:39:41.047Z,95455.38
2022-10-20T15:42:11.333Z,95453.03
2022-10-20T15:44:40.286Z,95461.34
2022-10-20T15:47:09.899Z,95462.81
2022-10-20T15:49:37.497Z,95453.09
2022-10-20T15:52:05.204Z,95447.81
2022-10-20T15:54:32.751Z,95446.03
2022-10-20T15:57:00.302Z,95428.47
2022-10-20T15:59:28.411Z,95434.34
2022-10-20T16:01:57.771Z,95432.56
2022-10-20T16:04:26.886Z,95427.13
2022-10-20T16:06:58.869Z,95426.47
2022-10-20T16:09:29.502Z,95423.84
2022-10-20T16:11:57.484Z,95428.19
2022-10-20T16:14:25.060Z,95422.19
2022-10-20T16:16:52.776Z,95419.56
2022-10-20T16:19:21.740Z,95420.69
2022-10-20T16:21:49.350Z,95428.56
2022-10-20T16:24:16.935Z,95428.22
2022-10-20T16:26:44.560Z,95422.91
2022-10-20T16:29:12.159Z,95425.94
2022-10-20T16:31:39.739Z,95423.28
2022-10-20T16:34:07.330Z,95422.19
2022-10-20T16:36:36.257Z,95419.22
2022-10-20T16:39:04.031Z,95418.16
2022-10-20T16:41:31.583Z,95414.78
2022-10-20T16:44:01.185Z,95407.09
2022-10-20T16:46:29.481Z,95400.28
2022-10-20T16:48:57.311Z,95387.88
2022-10-20T16:51:25.152Z,95394.41
2022-10-20T16:53:57.275Z,95390.09
2022-10-20T16:56:27.363Z,95391.31
2022-10-20T16:58:55.015Z,95387.88
2022-10-20T17:01:23.403Z,95380.00
2022-10-20T17:03:52.612Z,95382.34
2022-10-20T17:06:22.311Z,95378.81
2022-10-20T17:08:50.548Z,95381.50
2022-10-20T17:11:21.466Z,95389.75
2022-10-20T17:13:49.271Z,95390.56
2022-10-20T17:16:19.579Z,95401.00
2022-10-20T17:18:48.494Z,95394.91
2022-10-20T17:21:16.701Z,95397.16
2022-10-20T17:23:45.570Z,95390.91
2022-10-20T17:26:15.511Z,95390.47
2022-10-20T17:28:45.169Z,95386.81
2022-10-20T17:33:48.090Z,95402.31
2022-10-20T17:36:16.289Z,95402.53
2022-10-20T17:38:44.114Z,95408.25
2022-10-20T17:41:13.827Z,95406.75
2022-10-20T17:43:41.813Z,95408.31
2022-10-20T17:46:14.366Z,95410.72
2022-10-20T17:48:41.967Z,95401.72
2022-10-20T17:51:12.775Z,95403.66
2022-10-20T17:53:43.505Z,95392.88
2022-10-20T17:56:13.289Z,95389.13
2022-10-20T17:58:42.548Z,95388.78
2022-10-20T18:01:13.399Z,95383.00
2022-10-20T18:03:41.823Z,95366.94
2022-10-20T18:06:11.773Z,95366.28
2022-10-20T18:08:39.802Z,95368.38
2022-10-20T18:11:11.004Z,95364.94
2022-10-20T18:13:40.331Z,95352.97
2022-10-20T18:16:10.361Z,95349.69
2022-10-20T18:18:39.750Z,95336.94
2022-10-20T18:21:08.619Z,95326.59
2022-10-20T18:23:37.082Z,95337.66
2022-10-20T18:26:07.659Z,95342.09
2022-10-20T18:28:35.960Z,95347.91
2022-10-20T18:31:07.969Z,95350.19
2022-10-20T18:33:36.522Z,95350.84
2022-10-20T18:36:06.982Z,95362.75
2022-10-20T18:38:36.592Z,95360.88
2022-10-20T18:41:05.711Z,95353.25
2022-10-20T18:43:33.701Z,95339.31
2022-10-20T18:46:01.859Z,95331.66
2022-10-20T18:48:29.418Z,95341.34
2022-10-20T18:50:58.576Z,95345.28
2022-10-20T18:53:28.269Z,95339.16
2022-10-20T18:56:00.541Z,95336.16
2022-10-20T18:58:28.690Z,95340.25
2022-10-20T19:01:00.792Z,95341.72
2022-10-20T19:03:31.563Z,95340.66
2022-10-20T19:06:00.464Z,95338.66
2022-10-20T19:08:29.665Z,95343.66
2022-10-20T19:10:58.235Z,95338.41
2022-10-20T19:13:26.730Z,95343.31
2022-10-20T19:15:54.807Z,95343.09
2022-10-20T19:18:23.329Z,95344.66
2022-10-20T19:20:58.107Z,95337.63
2022-10-20T19:23:26.488Z,95339.03
2022-10-20T19:26:06.773Z,95336.44
2022-10-20T19:28:36.660Z,95346.53
2022-10-20T19:31:20.565Z,95338.81
2022-10-20T19:33:50.405Z,95338.00
2022-10-20T19:36:18.161Z,95331.41
2022-10-20T19:38:46.679Z,95337.63
2022-10-20T19:41:16.150Z,95334.31
2022-10-20T19:43:44.020Z,95337.91
2022-10-20T19:46:14.358Z,95333.66
2022-10-20T19:48:42.622Z,95343.41
2022-10-20T19:51:10.469Z,95338.13
2022-10-20T19:53:39.125Z,95339.53
2022-10-20T19:56:08.254Z,95351.19
2022-10-20T19:58:40.313Z,95342.94
2022-10-20T20:01:11.583Z,95350.94
2022-10-20T20:03:39.303Z,95353.06
2022-10-20T20:06:10.069Z,95355.78
2022-10-20T20:08:38.236Z,95360.34
2022-10-20T20:11:06.677Z,95359.81
2022-10-20T20:13:34.278Z,95359.28
2022-10-20T20:16:07.468Z,95351.59
2022-10-20T20:18:35.778Z,95347.19
2022-10-20T20:21:05.057Z,95352.00
2022-10-20T20:23:47.603Z,95357.22
2022-10-20T20:26:21.880Z,95358.16
2022-10-20T20:28:49.500Z,95359.28
2022-10-20T20:31:18.480Z,95362.88
2022-10-20T20:33:46.091Z,95366.31
2022-10-20T20:36:13.733Z,95376.91
2022-10-20T20:38:41.736Z,95384.72
2022-10-20T20:41:12.259Z,95378.50
2022-10-20T20:43:40.823Z,95390.31
2022-10-20T20:46:10.057Z,95396.81
2022-10-20T20:48:39.866Z,95395.72
2022-10-20T20:51:07.847Z,95388.16
2022-10-20T20:53:36.189Z,95393.72
2022-10-20T20:56:06.381Z,95410.06
2022-10-20T20:58:34.976Z,95409.50
2022-10-20T21:01:04.330Z,95416.47
2022-10-20T21:03:32.468Z,95434.06
2022-10-20T21:06:05.463Z,95438.72
2022-10-20T21:08:33.881Z,95432.22
2022-10-20T21:11:08.002Z,95436.47
2022-10-20T21:13:36.448Z,95435.06
2022-10-20T21:16:15.237Z,95437.72
2022-10-20T21:18:45.021Z,95453.25
2022-10-20T21:21:15.589Z,95453.25
2022-10-20T21:23:43.489Z,95455.59
2022-10-20T21:26:13.637Z,95455.44
2022-10-20T21:28:42.194Z,95465.38
2022-10-20T21:31:11.550Z,95464.41
2022-10-20T21:33:40.058Z,95461.28
2022-10-20T21:36:09.717Z,95465.72
2022-10-20T21:38:40.052Z,95473.81
2022-10-20T21:41:09.321Z,95483.56
2022-10-20T21:43:39.302Z,95494.16
2022-10-20T21:46:12.872Z,95473.31
2022-10-20T21:48:40.930Z,95477.81
2022-10-20T21:51:10.793Z,95478.31
2022-10-20T21:53:40.092Z,95483.56
2022-10-20T21:56:10.832Z,95486.44
2022-10-20T21:58:38.799Z,95471.97
2022-10-20T22:01:10.901Z,95481.38
2022-10-20T22:03:39.419Z,95489.34
2022-10-20T22:06:08.033Z,95490.34
2022-10-20T22:08:36.521Z,95489.50
2022-10-20T22:11:08.998Z,95493.47
2022-10-20T22:13:37.095Z,95479.50
2022-10-20T22:16:06.890Z,95483.03
2022-10-20T22:18:34.552Z,95496.22
2022-10-20T22:21:03.918Z,95498.84
2022-10-20T22:23:31.547Z,95498.03
2022-10-20T22:25:59.282Z,95502.75
2022-10-20T22:28:29.084Z,95499.81
2022-10-20T22:30:56.730Z,95496.97
2022-10-20T22:33:24.632Z,95492.78
2022-10-20T22:35:52.562Z,95487.59
2022-10-20T22:38:20.221Z,95495.63
2022-10-20T22:40:47.822Z,95482.56
2022-10-20T22:43:15.513Z,95476.53
2022-10-20T22:45:44.508Z,95462.25
2022-10-20T22:48:12.120Z,95471.03
2022-10-20T22:50:39.731Z,95464.44
2022-10-20T22:53:07.328Z,95454.00
2022-10-20T22:55:34.988Z,95461.94
2022-10-20T22:58:02.607Z,95460.19
2022-10-20T23:00:30.350Z,95468.69
2022-10-20T23:02:59.312Z,95470.34
2022-10-20T23:05:27.227Z,95462.47
2022-10-20T23:07:55.030Z,95460.97
2022-10-20T23:10:22.696Z,95462.09
2022-10-20T23:12:50.707Z,95465.16
2022-10-20T23:15:18.416Z,95456.41
2022-10-20T23:17:46.397Z,95446.63
2022-10-20T23:20:15.409Z,95444.00
2022-10-20T23:22:42.988Z,95441.34
2022-10-20T23:25:10.944Z,95433.50
2022-10-20T23:27:39.307Z,95418.34
2022-10-20T23:30:08.226Z,95413.63
2022-10-20T23:32:35.866Z,95408.97
2022-10-20T23:35:03.449Z,95408.03
2022-10-20T23:37:34.078Z,95395.84
2022-10-20T23:40:01.654Z,95393.34
2022-10-20T23:42:29.233Z,95391.78
2022-10-20T23:45:02.557Z,95397.69
2022-10-20T23:47:30.285Z,95400.97
2022-10-20T23:49:57.870Z,95400.19
2022-10-20T23:52:25.528Z,95396.06
2022-10-20T23:54:55.701Z,95395.28
2022-10-20T23:57:25.226Z,95387.88
2022-10-20T23:59:52.851Z,95382.88
